Terminal Aerodrome Forecast
Issued by NWS Paducah, KY

Home | Current Version | Previous Version | Text Only | Print | Product List | Glossary Off
Versions: 1 2 3 4 5 6 7 8 9 10 11 12 13 14 15 16 17 18 19 20

000
FTUS43 KPAH 272122 AAE
TAFPAH
TAF AMD
KPAH 272122Z 2721/2818 32006KT P6SM VCTS SCT028CB BKN050
      TEMPO 2721/2724 BKN028CB
     FM280000 24006KT 5SM -SHRA BR BKN025
     FM280800 26004KT 4SM BR OVC008
     FM281500 34006KT P6SM BKN015=

USA.gov is the U.S. government's official web portal to all federal, state and local government web resources and services.